createdAt,value
2023-04-01T00:01:03.727Z,100360.69
2023-04-01T00:03:34.362Z,100362.41
2023-04-01T00:06:03.950Z,100374.72
2023-04-01T00:08:31.994Z,100374.63
2023-04-01T00:10:59.975Z,100368.41
2023-04-01T00:13:28.349Z,100374.63
2023-04-01T00:15:56.668Z,100372.31
2023-04-01T00:18:25.698Z,100383.91
2023-04-01T00:20:53.731Z,100371.63
2023-04-01T00:23:23.009Z,100377.41
2023-04-01T00:25:50.968Z,100381.78
2023-04-01T00:28:19.212Z,100383.50
2023-04-01T00:30:47.240Z,100379.81
2023-04-01T00:33:15.214Z,100380.56
2023-04-01T00:35:43.076Z,100378.84
2023-04-01T00:38:12.325Z,100373.63
2023-04-01T00:40:42.432Z,100392.19
2023-04-01T00:43:14.261Z,100392.19
2023-04-01T00:45:42.625Z,100386.19
2023-04-01T00:48:12.528Z,100395.97
2023-04-01T00:50:41.259Z,100398.63
2023-04-01T00:53:09.107Z,100400.19
2023-04-01T00:55:39.148Z,100385.47
2023-04-01T00:58:09.778Z,100381.72
2023-04-01T01:00:37.728Z,100396.22
2023-04-01T01:03:05.698Z,100396.13
2023-04-01T01:05:48.475Z,100397.75
2023-04-01T01:08:19.095Z,100404.97
2023-04-01T01:10:48.405Z,100404.06
2023-04-01T01:13:19.796Z,100404.31
2023-04-01T01:15:48.766Z,100395.09
2023-04-01T01:18:20.944Z,100409.03
2023-04-01T01:21:08.098Z,100411.09
2023-04-01T01:24:12.328Z,100406.13
2023-04-01T01:26:49.149Z,100396.16
2023-04-01T01:29:29.871Z,100397.97
2023-04-01T01:31:59.914Z,100414.81
2023-04-01T01:34:29.765Z,100401.47
2023-04-01T01:37:00.582Z,100404.56
2023-04-01T01:39:30.394Z,100408.28
2023-04-01T01:41:58.320Z,100414.81
2023-04-01T01:44:26.213Z,100422.22
2023-04-01T01:46:54.081Z,100414.03
2023-04-01T01:49:21.966Z,100421.00
2023-04-01T01:51:50.078Z,100418.22
2023-04-01T01:54:20.045Z,100418.16
2023-04-01T01:56:55.588Z,100418.16
2023-04-01T01:59:23.530Z,100428.75
2023-04-01T02:02:00.029Z,100427.88
2023-04-01T02:04:28.168Z,100428.84
2023-04-01T02:06:58.343Z,100432.44
2023-04-01T02:09:27.598Z,100433.41
2023-04-01T02:11:58.064Z,100418.69
2023-04-01T02:14:27.129Z,100435.34
2023-04-01T02:16:57.243Z,100423.31
2023-04-01T02:19:26.766Z,100421.72
2023-04-01T02:21:56.443Z,100436.47
2023-04-01T02:24:24.901Z,100439.16
2023-04-01T02:26:54.183Z,100438.22
2023-04-01T02:29:22.912Z,100440.78
2023-04-01T02:31:50.935Z,100438.91
2023-04-01T02:34:18.972Z,100437.00
2023-04-01T02:36:46.821Z,100417.06
2023-04-01T02:39:14.757Z,100429.16
2023-04-01T02:41:42.886Z,100439.66
2023-04-01T02:44:12.317Z,100433.47
2023-04-01T02:46:40.222Z,100435.19
2023-04-01T02:49:08.169Z,100436.91
2023-04-01T02:51:36.103Z,100435.09
2023-04-01T02:54:04.018Z,100443.03
2023-04-01T02:56:31.885Z,100443.81
2023-04-01T02:58:59.714Z,100435.03
2023-04-01T03:01:29.117Z,100444.84
2023-04-01T03:03:57.154Z,100437.75
2023-04-01T03:06:25.034Z,100440.53
2023-04-01T03:08:52.873Z,100445.00
2023-04-01T03:11:20.835Z,100446.63
2023-04-01T03:13:49.749Z,100452.06
2023-04-01T03:16:17.733Z,100451.19
2023-04-01T03:18:47.053Z,100448.44
2023-04-01T03:21:16.511Z,100451.03
2023-04-01T03:23:44.394Z,100459.97
2023-04-01T03:26:12.697Z,100452.91
2023-04-01T03:28:40.594Z,100457.47
2023-04-01T03:31:08.581Z,100451.19
2023-04-01T03:33:36.472Z,100464.53
2023-04-01T03:36:07.470Z,100467.19
2023-04-01T03:38:35.684Z,100463.50
2023-04-01T03:41:03.761Z,100462.72
2023-04-01T03:43:31.677Z,100469.16
2023-04-01T03:45:59.654Z,100475.97
2023-04-01T03:48:27.569Z,100473.19
2023-04-01T03:50:55.528Z,100475.88
2023-04-01T03:53:24.797Z,100481.97
2023-04-01T03:55:53.022Z,100474.06
2023-04-01T03:58:20.953Z,100484.81
2023-04-01T04:00:48.833Z,100484.72
2023-04-01T04:03:17.031Z,100480.69
2023-04-01T04:05:49.222Z,100494.63
2023-04-01T04:08:17.144Z,100490.16
2023-04-01T04:10:47.407Z,100491.03
2023-04-01T04:13:15.441Z,100495.50
2023-04-01T04:15:43.356Z,100486.63
2023-04-01T04:18:11.254Z,100490.22
2023-04-01T04:20:39.158Z,100487.41
2023-04-01T04:23:07.091Z,100492.81
2023-04-01T04:25:35.056Z,100489.13
2023-04-01T04:28:04.509Z,100499.97
2023-04-01T04:30:32.512Z,100495.66
2023-04-01T04:33:00.543Z,100499.19
2023-04-01T04:35:28.408Z,100496.69
2023-04-01T04:37:56.285Z,100493.25
2023-04-01T04:40:24.124Z,100496.00
2023-04-01T04:42:51.956Z,100497.91
2023-04-01T04:45:21.321Z,100499.59
2023-04-01T04:47:49.242Z,100503.13
2023-04-01T04:50:17.901Z,100505.69
2023-04-01T04:52:45.849Z,100504.88
2023-04-01T04:55:13.763Z,100493.25
2023-04-01T04:57:41.618Z,100500.22
2023-04-01T05:00:11.123Z,100497.53
2023-04-01T05:02:40.547Z,100504.69
2023-04-01T05:05:09.476Z,100506.47
2023-04-01T05:07:37.356Z,100502.97
2023-04-01T05:10:05.904Z,100502.00
2023-04-01T05:12:37.128Z,100496.34
2023-04-01T05:15:05.536Z,100508.38
2023-04-01T05:17:33.446Z,100511.81
2023-04-01T05:20:04.338Z,100505.69
2023-04-01T05:22:32.201Z,100497.69
2023-04-01T05:25:00.092Z,100514.66
2023-04-01T05:27:28.032Z,100504.00
2023-04-01T05:29:56.097Z,100509.34
2023-04-01T05:32:24.002Z,100523.53
2023-04-01T05:34:52.550Z,100516.38
2023-04-01T05:37:21.842Z,100523.53
2023-04-01T05:39:49.697Z,100530.56
2023-04-01T05:42:17.783Z,100530.56
2023-04-01T05:44:45.725Z,100530.56
2023-04-01T05:47:13.711Z,100533.13
2023-04-01T05:49:41.597Z,100525.66
2023-04-01T05:52:09.871Z,100529.63
2023-04-01T05:54:39.113Z,100514.28
2023-04-01T05:57:06.998Z,100539.28
2023-04-01T05:59:35.942Z,100544.59
2023-04-01T06:02:03.883Z,100528.91
2023-04-01T06:04:35.007Z,100541.13
2023-04-01T06:07:02.933Z,100544.66
2023-04-01T06:09:41.453Z,100544.59
2023-04-01T06:12:31.805Z,100552.50
2023-04-01T06:15:05.886Z,100539.44
2023-04-01T06:17:42.969Z,100532.03
2023-04-01T06:20:14.505Z,100536.91
2023-04-01T06:22:51.526Z,100548.97
2023-04-01T06:25:41.952Z,100543.63
2023-04-01T06:28:43.692Z,100537.78
2023-04-01T06:31:15.116Z,100555.19
2023-04-01T06:33:57.563Z,100556.88
2023-04-01T06:36:53.246Z,100561.19
2023-04-01T06:39:37.006Z,100556.88
2023-04-01T06:42:25.049Z,100562.84
2023-04-01T06:44:59.515Z,100568.94
2023-04-01T06:47:38.531Z,100564.47
2023-04-01T06:50:10.091Z,100575.91
2023-04-01T06:52:42.198Z,100566.28
2023-04-01T06:55:22.383Z,100574.88
2023-04-01T06:57:55.466Z,100583.81
2023-04-01T07:00:30.464Z,100542.69
2023-04-01T07:03:06.575Z,100590.88
2023-04-01T07:05:37.399Z,100584.28
2023-04-01T07:08:06.837Z,100577.91
2023-04-01T07:10:38.108Z,100582.47
2023-04-01T07:13:07.128Z,100578.84
2023-04-01T07:15:39.156Z,100574.47
2023-04-01T07:18:18.273Z,100581.41
2023-04-01T07:20:48.529Z,100601.31
2023-04-01T07:23:20.402Z,100572.84
2023-04-01T07:25:49.520Z,100607.34
2023-04-01T07:28:18.606Z,100594.34
2023-04-01T07:30:55.078Z,100599.00
2023-04-01T07:33:25.489Z,100607.00
2023-04-01T07:35:55.743Z,100607.94
2023-04-01T07:38:26.889Z,100607.84
2023-04-01T07:40:57.571Z,100591.41
2023-04-01T07:43:58.299Z,100618.22
2023-04-01T07:46:36.061Z,100626.03
2023-04-01T07:49:06.313Z,100624.13
2023-04-01T07:51:36.787Z,100636.38
2023-04-01T07:54:08.715Z,100624.63
2023-04-01T07:56:39.161Z,100618.38
2023-04-01T07:59:11.154Z,100629.97
2023-04-01T08:01:43.020Z,100624.94
2023-04-01T08:04:24.587Z,100620.69
2023-04-01T08:06:57.884Z,100638.94
2023-04-01T08:09:30.460Z,100639.03
2023-04-01T08:12:08.839Z,100637.56
2023-04-01T08:14:41.377Z,100609.47
2023-04-01T08:17:13.419Z,100654.19
2023-04-01T08:19:53.228Z,100614.56
2023-04-01T08:22:24.201Z,100654.72
2023-04-01T08:24:56.637Z,100618.63
2023-04-01T08:27:27.381Z,100571.03
2023-04-01T08:30:05.214Z,100647.88
2023-04-01T08:32:36.817Z,100655.22
2023-04-01T08:35:13.728Z,100652.53
2023-04-01T08:37:42.868Z,100674.69
2023-04-01T08:40:42.311Z,100670.22
2023-04-01T08:43:13.456Z,100664.25
2023-04-01T08:45:54.302Z,100628.94
2023-04-01T08:48:32.662Z,100685.09
2023-04-01T08:51:19.153Z,100691.84
2023-04-01T08:54:07.646Z,100686.50
2023-04-01T08:56:38.828Z,100662.00
2023-04-01T08:59:28.096Z,100579.13
2023-04-01T09:02:22.644Z,100705.00
2023-04-01T09:05:16.315Z,100678.41
2023-04-01T09:07:48.591Z,100710.53
2023-04-01T09:10:38.425Z,100708.75
2023-04-01T09:13:43.664Z,100654.34
2023-04-01T09:16:48.304Z,100691.25
2023-04-01T09:19:28.009Z,100705.00
2023-04-01T09:22:20.065Z,100709.66
2023-04-01T09:25:09.637Z,100682.66
2023-04-01T09:27:42.940Z,100700.63
2023-04-01T09:30:34.464Z,100720.69
2023-04-01T09:33:45.978Z,100729.22
2023-04-01T09:36:27.360Z,100726.66
2023-04-01T09:39:01.707Z,100737.31
2023-04-01T09:41:32.631Z,100683.88
2023-04-01T09:44:05.587Z,100727.59
2023-04-01T09:46:40.495Z,100740.00
2023-04-01T09:49:21.715Z,100746.72
2023-04-01T09:51:56.574Z,100710.56
2023-04-01T09:54:37.481Z,100714.22
2023-04-01T09:57:37.780Z,100744.44
2023-04-01T10:00:24.457Z,100752.34
2023-04-01T10:03:21.772Z,100756.66
2023-04-01T10:06:06.435Z,100764.56
2023-04-01T10:08:56.838Z,100775.25
2023-04-01T10:12:07.431Z,100739.06
2023-04-01T10:14:47.796Z,100768.16
2023-04-01T10:17:30.872Z,100772.00
2023-04-01T10:20:11.900Z,100779.16
2023-04-01T10:22:49.201Z,100792.88
2023-04-01T10:25:37.759Z,100780.34
2023-04-01T10:28:14.860Z,100798.69
2023-04-01T10:31:11.502Z,100801.47
2023-04-01T10:34:02.314Z,100793.84
2023-04-01T10:36:50.454Z,100812.03
2023-04-01T10:39:55.572Z,100802.81
2023-04-01T10:42:52.249Z,100784.13
2023-04-01T10:45:57.753Z,100823.44
2023-04-01T10:49:00.496Z,100834.41
2023-04-01T10:51:59.746Z,100830.44
2023-04-01T10:54:44.564Z,100834.06
2023-04-01T10:57:28.461Z,100780.22
2023-04-01T11:00:20.155Z,100831.69
2023-04-01T11:03:09.535Z,100825.47
2023-04-01T11:06:20.068Z,100840.38
2023-04-01T11:09:33.204Z,100850.22
2023-04-01T11:12:29.697Z,100854.22
2023-04-01T11:15:39.256Z,100857.53
2023-04-01T11:18:29.944Z,100851.22
2023-04-01T11:21:38.771Z,100853.44
2023-04-01T11:24:16.284Z,100865.38
2023-04-01T11:26:52.444Z,100842.41
2023-04-01T11:29:56.649Z,100872.06
2023-04-01T11:32:33.846Z,100870.03
2023-04-01T11:35:37.999Z,100885.13
2023-04-01T11:38:15.761Z,100885.13
2023-04-01T11:40:46.335Z,100882.44
2023-04-01T11:43:26.332Z,100886.91
2023-04-01T11:46:01.253Z,100899.16
2023-04-01T11:49:00.252Z,100888.34
2023-04-01T11:52:04.327Z,100888.38
2023-04-01T11:54:49.379Z,100899.88
2023-04-01T11:57:30.697Z,100916.50
2023-04-01T12:00:08.373Z,100901.75
2023-04-01T12:02:40.555Z,100896.41
2023-04-01T12:05:21.021Z,100915.16
2023-04-01T12:08:09.542Z,100907.56
2023-04-01T12:10:42.528Z,100928.81
2023-04-01T12:13:17.824Z,100903.09
2023-04-01T12:16:00.098Z,100911.88
2023-04-01T12:18:30.434Z,100941.94
2023-04-01T12:21:00.045Z,100908.66
2023-04-01T12:23:48.769Z,100940.38
2023-04-01T12:26:36.257Z,100930.56
2023-04-01T12:29:11.808Z,100947.75
2023-04-01T12:31:44.665Z,100941.16
2023-04-01T12:34:36.816Z,100962.81
2023-04-01T12:37:09.965Z,100948.88
2023-04-01T12:39:54.601Z,100964.84
2023-04-01T12:42:37.983Z,100950.47
2023-04-01T12:45:19.673Z,100960.75
2023-04-01T12:48:06.980Z,100964.75
2023-04-01T12:50:44.844Z,100939.31
2023-04-01T12:53:40.541Z,100976.44
2023-04-01T12:56:14.119Z,100975.56
2023-04-01T12:59:04.166Z,100962.69
2023-04-01T13:01:39.407Z,100976.22
2023-04-01T13:04:41.163Z,100970.31
2023-04-01T13:07:25.773Z,100987.38
2023-04-01T13:10:00.732Z,100983.44
2023-04-01T13:12:43.648Z,101000.94
2023-04-01T13:15:28.710Z,100989.91
2023-04-01T13:18:01.212Z,101003.84
2023-04-01T13:20:37.192Z,101015.66
2023-04-01T13:23:18.988Z,101010.91
2023-04-01T13:25:51.089Z,101018.19
2023-04-01T13:28:27.337Z,101017.13
2023-04-01T13:31:08.164Z,101030.31
2023-04-01T13:33:43.409Z,101022.53
2023-04-01T13:36:17.575Z,101025.66
2023-04-01T13:39:00.848Z,101038.44
2023-04-01T13:41:35.944Z,101054.56
2023-04-01T13:44:09.159Z,101054.00
2023-04-01T13:46:46.268Z,101062.31
2023-04-01T13:49:26.289Z,101052.25
2023-04-01T13:52:27.842Z,101065.22
2023-04-01T13:55:14.082Z,101062.88
2023-04-01T13:57:56.841Z,101068.22
2023-04-01T14:00:34.849Z,101073.84
2023-04-01T14:03:32.858Z,101080.38
2023-04-01T14:06:33.927Z,101070.16
2023-04-01T14:09:32.595Z,101087.84
2023-04-01T14:12:05.445Z,101098.44
2023-04-01T14:14:39.115Z,101098.94
2023-04-01T14:17:16.709Z,101107.88
2023-04-01T14:19:55.034Z,101109.50
2023-04-01T14:22:27.480Z,101116.97
2023-04-01T14:25:18.155Z,101113.50
2023-04-01T14:27:54.010Z,101112.78
2023-04-01T14:30:46.098Z,101104.59
2023-04-01T14:33:23.235Z,101119.44
2023-04-01T14:35:58.682Z,101117.44
2023-04-01T14:38:50.437Z,101137.69
2023-04-01T14:41:24.648Z,101149.34
2023-04-01T14:44:03.644Z,101162.59
2023-04-01T14:47:08.303Z,101169.38
2023-04-01T14:49:37.780Z,101166.00
2023-04-01T14:52:12.197Z,101156.38
2023-04-01T14:54:41.411Z,101177.00
2023-04-01T14:57:13.817Z,101187.47
2023-04-01T14:59:42.447Z,101190.91
2023-04-01T15:02:24.649Z,101173.19
2023-04-01T15:04:57.259Z,101189.06
2023-04-01T15:07:57.247Z,101200.91
2023-04-01T15:10:41.333Z,101187.22
2023-04-01T15:13:14.770Z,101187.78
2023-04-01T15:15:51.507Z,101209.34
2023-04-01T15:18:23.700Z,101213.69
2023-04-01T15:21:17.333Z,101219.47
2023-04-01T15:24:00.042Z,101227.31
2023-04-01T15:26:54.108Z,101217.56
2023-04-01T15:29:35.432Z,101237.03
2023-04-01T15:32:05.076Z,101232.00
2023-04-01T15:34:38.188Z,101249.34
2023-04-01T15:37:10.339Z,101235.84
2023-04-01T15:39:46.577Z,101246.13
2023-04-01T15:42:25.779Z,101232.97
2023-04-01T15:45:00.985Z,101262.47
2023-04-01T15:47:40.614Z,101275.56
2023-04-01T15:50:49.295Z,101275.38
2023-04-01T15:53:25.955Z,101278.09
2023-04-01T15:55:57.762Z,101289.72
2023-04-01T15:58:37.408Z,101277.50
2023-04-01T16:01:11.060Z,101296.53
2023-04-01T16:03:41.435Z,101291.38
2023-04-01T16:06:29.489Z,101288.84
2023-04-01T16:09:04.265Z,101293.31
2023-04-01T16:11:42.018Z,101296.03
2023-04-01T16:14:16.174Z,101307.09
2023-04-01T16:16:52.730Z,101324.41
2023-04-01T16:19:48.777Z,101332.22
2023-04-01T16:22:22.375Z,101333.88
2023-04-01T16:24:54.196Z,101332.28
2023-04-01T16:27:31.408Z,101292.31
2023-04-01T16:30:03.175Z,101348.44
2023-04-01T16:32:40.212Z,101325.59
2023-04-01T16:35:22.423Z,101355.03
2023-04-01T16:37:52.418Z,101328.75
2023-04-01T16:40:30.493Z,101368.44
2023-04-01T16:43:07.327Z,101372.88
2023-04-01T16:45:37.414Z,101370.09
2023-04-01T16:48:09.898Z,101370.84
2023-04-01T16:50:47.751Z,101380.72
2023-04-01T16:53:20.309Z,101381.66
2023-04-01T16:55:54.179Z,101395.00
2023-04-01T16:58:29.766Z,101370.38
2023-04-01T17:01:01.051Z,101397.44
2023-04-01T17:03:31.729Z,101405.50
2023-04-01T17:06:06.192Z,101404.63
2023-04-01T17:08:45.132Z,101414.03
2023-04-01T17:11:17.905Z,101423.09
2023-04-01T17:13:55.895Z,101438.06
2023-04-01T17:16:38.544Z,101432.31
2023-04-01T17:19:10.432Z,101417.66
2023-04-01T17:21:53.212Z,101436.81
2023-04-01T17:24:30.344Z,101452.56
2023-04-01T17:27:00.601Z,101458.78
2023-04-01T17:29:34.517Z,101457.91
2023-04-01T17:32:06.080Z,101455.75
2023-04-01T17:34:45.461Z,101473.41
2023-04-01T17:37:29.940Z,101473.28
2023-04-01T17:40:03.043Z,101478.59
2023-04-01T17:42:37.456Z,101495.34
2023-04-01T17:45:10.020Z,101498.81
2023-04-01T17:47:46.642Z,101504.72
2023-04-01T17:50:26.257Z,101496.22
2023-04-01T17:53:01.570Z,101507.97
2023-04-01T17:55:46.511Z,101514.41
2023-04-01T17:58:19.378Z,101525.97
2023-04-01T18:01:00.804Z,101533.97
2023-04-01T18:03:44.844Z,101535.28
2023-04-01T18:06:20.539Z,101542.03
2023-04-01T18:09:00.220Z,101550.75
2023-04-01T18:11:36.337Z,101503.84
2023-04-01T18:14:26.167Z,101555.06
2023-04-01T18:17:16.688Z,101541.88
2023-04-01T18:19:48.900Z,101558.19
2023-04-01T18:22:19.692Z,101558.56
2023-04-01T18:24:49.826Z,101560.88
2023-04-01T18:27:18.505Z,101572.06
2023-04-01T18:29:50.694Z,101575.97
2023-04-01T18:32:30.443Z,101601.19
2023-04-01T18:35:05.057Z,101603.19
2023-04-01T18:37:34.571Z,101605.47
2023-04-01T18:40:12.631Z,101614.75
2023-04-01T18:42:45.470Z,101614.13
2023-04-01T18:45:20.136Z,101619.91
2023-04-01T18:47:56.732Z,101612.13
2023-04-01T18:50:25.649Z,101643.53
2023-04-01T18:52:56.513Z,101630.53
2023-04-01T18:55:35.030Z,101637.97
2023-04-01T18:58:13.899Z,101638.34
2023-04-01T19:00:44.237Z,101649.34
2023-04-01T19:03:18.444Z,101644.91
2023-04-01T19:05:47.831Z,101624.44
2023-04-01T19:08:30.571Z,101659.50
2023-04-01T19:11:10.258Z,101666.94
2023-04-01T19:13:45.321Z,101677.00
2023-04-01T19:16:17.545Z,101678.13
2023-04-01T19:18:58.190Z,101682.91
2023-04-01T19:21:29.814Z,101692.72
2023-04-01T19:24:23.476Z,101681.44
2023-04-01T19:27:01.503Z,101696.50
2023-04-01T19:29:37.684Z,101707.25
2023-04-01T19:32:11.559Z,101705.59
2023-04-01T19:34:47.973Z,101717.28
2023-04-01T19:37:24.768Z,101690.44
2023-04-01T19:39:55.098Z,101731.69
2023-04-01T19:42:26.978Z,101737.09
2023-04-01T19:44:59.881Z,101740.72
2023-04-01T19:47:38.503Z,101745.13
2023-04-01T19:50:11.659Z,101739.16
2023-04-01T19:52:40.174Z,101760.41
2023-04-01T19:55:16.151Z,101760.56
2023-04-01T19:57:48.849Z,101764.34
2023-04-01T20:00:19.598Z,101758.22
2023-04-01T20:03:01.762Z,101776.88
2023-04-01T20:05:36.450Z,101781.41
2023-04-01T20:08:09.928Z,101779.06
2023-04-01T20:10:41.375Z,101798.50
2023-04-01T20:13:14.243Z,101809.22
2023-04-01T20:15:43.113Z,101812.84
2023-04-01T20:18:16.292Z,101816.47
2023-04-01T20:20:53.986Z,101825.38
2023-04-01T20:23:42.145Z,101818.41
2023-04-01T20:26:10.811Z,101815.16
2023-04-01T20:28:44.692Z,101829.22
2023-04-01T20:31:23.893Z,101820.56
2023-04-01T20:34:23.033Z,101835.59
2023-04-01T20:37:03.079Z,101832.44
2023-04-01T20:39:55.082Z,101856.28
2023-04-01T20:42:37.584Z,101863.41
2023-04-01T20:45:16.926Z,101864.34
2023-04-01T20:47:54.174Z,101850.56
2023-04-01T20:50:23.700Z,101876.78
2023-04-01T20:52:58.656Z,101882.06
2023-04-01T20:55:56.767Z,101868.31
2023-04-01T20:58:30.896Z,101870.31
2023-04-01T21:01:03.327Z,101906.28
2023-04-01T21:03:39.277Z,101897.44
2023-04-01T21:06:35.732Z,101907.13
2023-04-01T21:09:18.674Z,101925.72
2023-04-01T21:11:51.684Z,101931.00
2023-04-01T21:14:34.483Z,101923.94
2023-04-01T21:17:06.560Z,101924.00
2023-04-01T21:19:42.957Z,101918.72
2023-04-01T21:22:36.450Z,101925.97
2023-04-01T21:25:20.306Z,101933.25
2023-04-01T21:27:55.036Z,101937.00
2023-04-01T21:30:41.268Z,101935.31
2023-04-01T21:33:21.095Z,101952.31
2023-04-01T21:35:53.323Z,101953.31
2023-04-01T21:38:28.873Z,101950.78
2023-04-01T21:41:39.209Z,101952.56
2023-04-01T21:44:40.904Z,101957.19
2023-04-01T21:47:19.469Z,101960.84
2023-04-01T21:49:56.869Z,101965.22
2023-04-01T21:52:55.614Z,101975.06
2023-04-01T21:55:56.323Z,101980.44
2023-04-01T21:59:06.602Z,101984.81
2023-04-01T22:01:48.086Z,101973.53
2023-04-01T22:04:38.429Z,101981.28
2023-04-01T22:07:11.256Z,101988.44
2023-04-01T22:09:40.815Z,101999.19
2023-04-01T22:12:11.009Z,101995.66
2023-04-01T22:14:43.012Z,102005.53
2023-04-01T22:17:18.046Z,102009.91
2023-04-01T22:19:51.881Z,102016.09
2023-04-01T22:22:21.490Z,102022.31
2023-04-01T22:24:55.302Z,102024.09
2023-04-01T22:27:27.346Z,102025.03
2023-04-01T22:30:01.485Z,102030.41
2023-04-01T22:32:33.022Z,102041.00
2023-04-01T22:35:05.507Z,102042.78
2023-04-01T22:37:35.368Z,102043.72
2023-04-01T22:40:19.647Z,102047.28
2023-04-01T22:42:48.085Z,102049.03
2023-04-01T22:45:33.991Z,102044.66
2023-04-01T22:48:07.854Z,102042.94
2023-04-01T22:50:38.790Z,102063.25
2023-04-01T22:53:15.871Z,102057.97
2023-04-01T22:55:53.109Z,102059.88
2023-04-01T22:58:24.000Z,102075.75
2023-04-01T23:00:53.548Z,102060.94
2023-04-01T23:03:23.904Z,102067.16
2023-04-01T23:05:53.231Z,102052.34
2023-04-01T23:08:41.485Z,102066.44
2023-04-01T23:11:09.637Z,102080.41
2023-04-01T23:13:39.194Z,102088.38
2023-04-01T23:16:07.615Z,102087.56
2023-04-01T23:18:37.649Z,102093.81
2023-04-01T23:21:14.692Z,102099.19
2023-04-01T23:23:48.385Z,102112.50
2023-04-01T23:26:17.655Z,102104.53
2023-04-01T23:28:50.194Z,102094.19
2023-04-01T23:31:32.127Z,102104.63
2023-04-01T23:34:02.841Z,102117.03
2023-04-01T23:36:32.142Z,102123.25
2023-04-01T23:39:02.511Z,102121.53
2023-04-01T23:41:31.974Z,102121.59
2023-04-01T23:44:01.984Z,102127.81
2023-04-01T23:46:30.525Z,102132.31
2023-04-01T23:48:58.636Z,102135.91
2023-04-01T23:51:29.776Z,102132.47
2023-04-01T23:54:04.557Z,102138.53
2023-04-01T23:56:41.706Z,102140.34
2023-04-01T23:59:12.883Z,102136.84
